createdAt,value
2022-10-29T00:00:53.289Z,98127.53
2022-10-29T00:03:20.641Z,98128.94
2022-10-29T00:06:01.875Z,98128.84
2022-10-29T00:08:30.718Z,98135.97
2022-10-29T00:18:31.434Z,98146.16
2022-10-29T00:21:04.647Z,98154.50
2022-10-29T00:23:31.489Z,98153.25
2022-10-29T00:26:02.129Z,98143.56
2022-10-29T00:28:31.169Z,98139.38
2022-10-29T00:31:01.762Z,98136.75
2022-10-29T00:33:28.251Z,98134.06
2022-10-29T00:35:56.807Z,98140.66
2022-10-29T00:38:23.517Z,98134.53
2022-10-29T00:40:50.231Z,98134.00
2022-10-29T00:43:19.701Z,98142.03
2022-10-29T00:46:03.370Z,98140.16
2022-10-29T00:48:33.565Z,98143.97
2022-10-29T00:51:03.517Z,98146.56
2022-10-29T00:53:37.403Z,98150.44
2022-10-29T00:56:04.477Z,98159.31
2022-10-29T00:58:31.257Z,98156.69
2022-10-29T01:00:59.321Z,98171.16
2022-10-29T01:03:25.908Z,98167.97
2022-10-29T01:05:54.021Z,98177.56
2022-10-29T01:08:21.198Z,98172.56
2022-10-29T01:11:38.416Z,98175.25
2022-10-29T01:14:23.351Z,98169.16
2022-10-29T01:17:17.892Z,98167.03
2022-10-29T01:19:47.542Z,98169.75
2022-10-29T01:22:41.583Z,98164.28
2022-10-29T01:25:32.566Z,98161.06
2022-10-29T01:28:05.261Z,98158.47
2022-10-29T01:30:56.743Z,98166.78
2022-10-29T01:33:43.387Z,98162.16
2022-10-29T01:36:18.859Z,98156.28
2022-10-29T01:38:48.423Z,98153.50
2022-10-29T01:41:32.933Z,98152.00
2022-10-29T01:44:33.325Z,98152.78
2022-10-29T01:47:03.687Z,98159.72
2022-10-29T01:49:40.244Z,98154.34
2022-10-29T01:52:11.277Z,98158.94
2022-10-29T01:54:47.555Z,98162.84
2022-10-29T01:57:38.034Z,98157.78
2022-10-29T02:00:25.604Z,98163.19
2022-10-29T02:02:59.672Z,98167.63
2022-10-29T02:05:34.742Z,98160.72
2022-10-29T02:08:36.598Z,98170.09
2022-10-29T02:11:18.064Z,98163.63
2022-10-29T02:13:53.540Z,98156.31
2022-10-29T02:16:20.964Z,98151.66
2022-10-29T02:18:49.201Z,98154.94
2022-10-29T02:21:20.324Z,98150.03
2022-10-29T02:23:47.446Z,98150.22
2022-10-29T02:26:13.987Z,98162.09
2022-10-29T02:29:32.768Z,98165.31
2022-10-29T02:31:59.327Z,98158.25
2022-10-29T02:34:25.878Z,98162.53
2022-10-29T02:36:52.393Z,98169.25
2022-10-29T02:39:18.875Z,98170.41
2022-10-29T02:41:45.398Z,98175.94
2022-10-29T02:44:14.425Z,98167.72
2022-10-29T02:46:41.912Z,98166.16
2022-10-29T02:49:08.479Z,98174.13
2022-10-29T02:51:34.988Z,98180.88
2022-10-29T02:54:01.563Z,98172.44
2022-10-29T02:56:28.130Z,98169.28
2022-10-29T02:58:55.338Z,98173.81
2022-10-29T03:01:21.927Z,98166.38
2022-10-29T03:03:48.589Z,98167.59
2022-10-29T03:06:16.938Z,98160.19
2022-10-29T03:08:43.889Z,98162.19
2022-10-29T03:11:10.498Z,98160.41
2022-10-29T03:16:05.698Z,98164.31
2022-10-29T03:18:32.233Z,98169.84
2022-10-29T03:20:58.768Z,98163.56
2022-10-29T03:23:25.319Z,98167.66
2022-10-29T03:25:55.798Z,98161.38
2022-10-29T03:28:27.795Z,98153.97
2022-10-29T03:30:54.578Z,98155.72
2022-10-29T03:33:21.177Z,98167.75
2022-10-29T03:35:47.765Z,98169.00
2022-10-29T03:38:14.417Z,98161.44
2022-10-29T03:40:41.000Z,98163.56
2022-10-29T03:43:07.540Z,98163.31
2022-10-29T03:45:37.052Z,98168.09
2022-10-29T03:48:04.963Z,98171.97
2022-10-29T03:50:31.592Z,98161.53
2022-10-29T03:52:58.139Z,98160.84
2022-10-29T03:55:24.737Z,98160.03
2022-10-29T03:57:51.228Z,98147.59
2022-10-29T04:00:17.866Z,98147.00
2022-10-29T04:02:44.486Z,98151.47
2022-10-29T04:05:11.069Z,98153.38
2022-10-29T04:07:37.595Z,98157.69
2022-10-29T04:10:04.869Z,98158.19
2022-10-29T04:12:31.446Z,98155.91
2022-10-29T04:14:58.048Z,98167.00
2022-10-29T04:17:24.630Z,98167.91
2022-10-29T04:19:51.170Z,98164.72
2022-10-29T04:30:37.621Z,98164.81
2022-10-29T04:33:04.155Z,98161.88
2022-10-29T04:35:30.722Z,98158.50
2022-10-29T04:37:57.324Z,98156.78
2022-10-29T04:40:24.882Z,98159.16
2022-10-29T04:42:51.528Z,98148.03
2022-10-29T04:45:18.770Z,98161.81
2022-10-29T04:47:45.837Z,98162.94
2022-10-29T04:50:12.337Z,98156.91
2022-10-29T04:52:38.933Z,98154.31
2022-10-29T04:55:05.631Z,98162.00
2022-10-29T04:57:32.215Z,98163.44
2022-10-29T04:59:58.776Z,98163.28
2022-10-29T05:02:25.315Z,98165.09
2022-10-29T05:04:51.855Z,98163.56
2022-10-29T05:07:18.398Z,98164.53
2022-10-29T05:09:44.965Z,98163.78
2022-10-29T05:12:11.545Z,98160.34
2022-10-29T05:14:38.037Z,98152.47
2022-10-29T05:17:04.618Z,98141.00
2022-10-29T05:19:31.173Z,98128.44
2022-10-29T05:21:57.710Z,98132.38
2022-10-29T05:24:24.346Z,98138.50
2022-10-29T05:26:50.883Z,98147.41
2022-10-29T05:29:19.768Z,98146.75
2022-10-29T05:31:46.370Z,98153.81
2022-10-29T05:34:13.084Z,98148.34
2022-10-29T05:36:39.656Z,98162.19
2022-10-29T05:39:06.343Z,98156.72
2022-10-29T05:41:32.863Z,98148.59
2022-10-29T05:43:59.524Z,98149.53
2022-10-29T05:46:29.341Z,98138.50
2022-10-29T05:48:55.966Z,98141.63
2022-10-29T05:51:22.541Z,98143.16
2022-10-29T05:53:51.367Z,98134.81
2022-10-29T05:56:17.961Z,98134.81
2022-10-29T05:58:44.487Z,98136.94
2022-10-29T06:01:11.758Z,98141.03
2022-10-29T06:03:39.219Z,98142.50
2022-10-29T06:06:06.000Z,98150.63
2022-10-29T06:08:34.798Z,98152.38
2022-10-29T06:11:04.372Z,98135.44
2022-10-29T06:13:31.011Z,98138.19
2022-10-29T06:15:59.850Z,98147.25
2022-10-29T06:18:27.645Z,98144.41
2022-10-29T06:20:54.882Z,98151.13
2022-10-29T06:23:23.771Z,98151.34
2022-10-29T06:25:50.293Z,98152.03
2022-10-29T06:28:18.988Z,98144.56
2022-10-29T06:30:50.204Z,98148.16
2022-10-29T06:33:18.435Z,98154.53
2022-10-29T06:35:45.787Z,98147.66
2022-10-29T06:38:13.020Z,98144.53
2022-10-29T06:40:40.600Z,98146.66
2022-10-29T06:43:10.078Z,98145.50
2022-10-29T06:45:37.018Z,98146.50
2022-10-29T06:48:05.472Z,98142.94
2022-10-29T06:50:32.270Z,98144.81
2022-10-29T06:53:01.347Z,98151.84
2022-10-29T06:55:28.358Z,98152.41
2022-10-29T06:58:03.320Z,98149.59
2022-10-29T07:00:30.615Z,98152.56
2022-10-29T07:02:57.932Z,98150.69
2022-10-29T07:05:27.787Z,98153.97
2022-10-29T07:07:58.691Z,98155.94
2022-10-29T07:10:27.948Z,98168.06
2022-10-29T07:12:54.629Z,98171.50
2022-10-29T07:15:25.695Z,98176.44
2022-10-29T07:18:07.491Z,98178.22
2022-10-29T07:20:37.584Z,98174.59
2022-10-29T07:23:04.142Z,98172.00
2022-10-29T07:25:31.698Z,98174.31
2022-10-29T07:28:08.126Z,98174.53
2022-10-29T07:30:34.794Z,98172.22
2022-10-29T07:33:01.377Z,98169.25
2022-10-29T07:35:28.400Z,98177.63
2022-10-29T07:38:05.406Z,98174.16
2022-10-29T07:40:38.338Z,98177.06
2022-10-29T07:43:05.067Z,98177.97
2022-10-29T07:45:32.808Z,98191.63
2022-10-29T07:48:04.894Z,98202.75
2022-10-29T07:50:32.007Z,98202.72
2022-10-29T07:53:05.787Z,98206.75
2022-10-29T07:55:32.470Z,98197.06
2022-10-29T07:58:01.453Z,98197.38
2022-10-29T08:00:29.995Z,98190.41
2022-10-29T08:02:57.258Z,98187.28
2022-10-29T08:05:25.937Z,98185.31
2022-10-29T08:07:56.658Z,98184.88
2022-10-29T08:10:24.513Z,98189.22
2022-10-29T08:12:56.647Z,98177.38
2022-10-29T08:15:24.821Z,98180.75
2022-10-29T08:17:51.596Z,98164.13
2022-10-29T08:20:18.580Z,98163.00
2022-10-29T08:22:45.097Z,98157.16
2022-10-29T08:25:12.651Z,98171.44
2022-10-29T08:27:39.326Z,98162.78
2022-10-29T08:30:07.709Z,98168.13
2022-10-29T08:32:35.553Z,98168.72
2022-10-29T08:35:02.760Z,98176.78
2022-10-29T08:37:29.323Z,98176.25
2022-10-29T08:39:55.889Z,98167.88
2022-10-29T08:42:46.573Z,98168.47
2022-10-29T08:45:22.182Z,98181.53
2022-10-29T08:47:48.705Z,98185.47
2022-10-29T08:50:24.003Z,98195.31
2022-10-29T08:53:04.899Z,98191.59
2022-10-29T08:55:39.043Z,98194.38
2022-10-29T08:58:19.677Z,98194.03
2022-10-29T09:00:51.712Z,98182.50
2022-10-29T09:03:18.344Z,98178.19
2022-10-29T09:05:57.016Z,98176.88
2022-10-29T09:08:44.127Z,98173.41
2022-10-29T09:11:43.207Z,98171.97
2022-10-29T09:14:29.182Z,98163.09
2022-10-29T09:17:02.736Z,98172.84
2022-10-29T09:20:14.867Z,98180.06
2022-10-29T09:22:59.052Z,98179.97
2022-10-29T09:25:41.620Z,98181.59
2022-10-29T09:28:32.796Z,98178.88
2022-10-29T09:31:08.245Z,98179.75
2022-10-29T09:33:34.968Z,98167.28
2022-10-29T09:36:02.405Z,98171.31
2022-10-29T09:38:35.267Z,98168.13
2022-10-29T09:41:07.766Z,98168.84
2022-10-29T09:43:58.706Z,98169.56
2022-10-29T09:47:19.182Z,98172.09
2022-10-29T09:50:05.423Z,98173.91
2022-10-29T09:52:39.251Z,98178.19
2022-10-29T09:55:07.702Z,98167.41
2022-10-29T09:57:36.233Z,98174.63
2022-10-29T10:00:13.658Z,98166.13
2022-10-29T10:03:13.021Z,98166.28
2022-10-29T10:05:58.049Z,98172.66
2022-10-29T10:08:24.548Z,98175.84
2022-10-29T10:10:56.983Z,98173.19
2022-10-29T10:13:27.393Z,98168.09
2022-10-29T10:15:59.748Z,98166.00
2022-10-29T10:18:32.542Z,98162.81
2022-10-29T10:21:14.865Z,98163.94
2022-10-29T10:23:52.704Z,98158.22
2022-10-29T10:26:43.093Z,98153.94
2022-10-29T10:29:19.517Z,98144.66
2022-10-29T10:31:48.265Z,98148.13
2022-10-29T10:34:23.885Z,98154.81
2022-10-29T10:36:54.674Z,98149.81
2022-10-29T10:39:27.267Z,98148.97
2022-10-29T10:41:55.678Z,98145.38
2022-10-29T10:44:23.341Z,98150.09
2022-10-29T10:46:54.311Z,98142.59
2022-10-29T10:49:33.742Z,98145.78
2022-10-29T10:52:05.417Z,98128.56
2022-10-29T10:54:37.874Z,98119.25
2022-10-29T10:57:18.066Z,98123.03
2022-10-29T10:59:59.712Z,98119.28
2022-10-29T11:02:49.143Z,98103.84
2022-10-29T11:05:22.600Z,98107.59
2022-10-29T11:07:57.668Z,98104.13
2022-10-29T11:10:43.365Z,98101.19
2022-10-29T11:13:16.368Z,98101.19
2022-10-29T11:16:03.635Z,98100.09
2022-10-29T11:18:38.028Z,98101.75
2022-10-29T11:21:25.815Z,98099.50
2022-10-29T11:23:59.583Z,98091.84
2022-10-29T11:26:31.760Z,98086.44
2022-10-29T11:29:22.081Z,98093.81
2022-10-29T11:32:10.338Z,98090.31
2022-10-29T11:35:04.416Z,98090.88
2022-10-29T11:37:52.706Z,98093.09
2022-10-29T11:40:28.466Z,98088.78
2022-10-29T11:42:54.905Z,98088.38
2022-10-29T11:45:40.832Z,98081.63
2022-10-29T11:48:22.434Z,98083.44
2022-10-29T11:51:02.933Z,98072.31
2022-10-29T11:53:44.606Z,98080.75
2022-10-29T11:56:22.606Z,98076.78
2022-10-29T11:58:58.022Z,98074.47
2022-10-29T12:01:53.103Z,98079.75
2022-10-29T12:04:47.875Z,98074.91
2022-10-29T12:07:20.729Z,98060.97
2022-10-29T12:09:54.777Z,98060.81
2022-10-29T12:12:30.033Z,98060.59
2022-10-29T12:15:26.867Z,98049.06
2022-10-29T12:18:19.059Z,98052.22
2022-10-29T12:20:58.884Z,98049.25
2022-10-29T12:23:46.501Z,98050.66
2022-10-29T12:26:31.427Z,98044.53
2022-10-29T12:29:05.917Z,98035.91
2022-10-29T12:31:49.149Z,98039.56
2022-10-29T12:34:26.334Z,98025.31
2022-10-29T12:37:28.926Z,98030.09
2022-10-29T12:40:05.194Z,98034.97
2022-10-29T12:42:32.279Z,98027.97
2022-10-29T12:45:13.638Z,98020.47
2022-10-29T12:48:05.423Z,98017.81
2022-10-29T12:50:50.073Z,98026.13
2022-10-29T12:53:22.498Z,98022.16
2022-10-29T12:55:49.830Z,98020.19
2022-10-29T12:58:45.079Z,98020.81
2022-10-29T13:02:10.642Z,98015.16
2022-10-29T13:04:32.209Z,98007.78
2022-10-29T13:07:04.800Z,98012.44
2022-10-29T13:09:36.332Z,98003.19
2022-10-29T13:12:13.629Z,98000.09
2022-10-29T13:14:55.818Z,97997.63
2022-10-29T13:17:22.317Z,97994.56
2022-10-29T13:19:54.717Z,98004.34
2022-10-29T13:22:59.541Z,98001.13
2022-10-29T13:25:36.208Z,98001.75
2022-10-29T13:28:08.950Z,97992.22
2022-10-29T13:30:44.354Z,97993.19
2022-10-29T13:33:26.211Z,97999.22
2022-10-29T13:36:01.453Z,97992.31
2022-10-29T13:39:05.235Z,97988.31
2022-10-29T13:41:42.084Z,97988.31
2022-10-29T13:44:24.340Z,97986.66
2022-10-29T13:47:19.923Z,97983.69
2022-10-29T13:49:48.893Z,97988.31
2022-10-29T13:52:17.765Z,97985.28
2022-10-29T13:55:01.470Z,97983.25
2022-10-29T13:57:36.984Z,97979.47
2022-10-29T14:00:07.619Z,97984.94
2022-10-29T14:02:39.273Z,97982.56
2022-10-29T14:05:14.968Z,97973.13
2022-10-29T14:07:45.701Z,97975.09
2022-10-29T14:10:33.008Z,97982.66
2022-10-29T14:13:07.957Z,97978.53
2022-10-29T14:15:34.721Z,97978.66
2022-10-29T14:18:25.572Z,97985.38
2022-10-29T14:20:56.490Z,97979.13
2022-10-29T14:23:23.102Z,97984.88
2022-10-29T14:26:03.991Z,97989.75
2022-10-29T14:28:34.888Z,97979.22
2022-10-29T14:31:23.118Z,97976.72
2022-10-29T14:33:58.960Z,97971.22
2022-10-29T14:36:35.903Z,97978.78
2022-10-29T14:39:28.805Z,97978.59
2022-10-29T14:41:59.432Z,97974.66
2022-10-29T14:44:29.647Z,97978.69
2022-10-29T14:47:13.509Z,97976.41
2022-10-29T14:49:45.967Z,97975.25
2022-10-29T14:52:29.730Z,97966.75
2022-10-29T14:54:59.084Z,97965.81
2022-10-29T14:57:28.383Z,97957.44
2022-10-29T14:59:59.050Z,97962.72
2022-10-29T15:02:40.108Z,97969.69
2022-10-29T15:05:26.801Z,97968.00
2022-10-29T15:08:24.149Z,97971.09
2022-10-29T15:10:50.721Z,97968.91
2022-10-29T15:13:46.009Z,97966.25
2022-10-29T15:16:21.465Z,97967.75
2022-10-29T15:18:53.897Z,97966.00
2022-10-29T15:21:27.064Z,97972.72
2022-10-29T15:23:58.993Z,97965.66
2022-10-29T15:26:25.786Z,97966.91
2022-10-29T15:28:54.556Z,97967.22
2022-10-29T15:31:24.781Z,97962.38
2022-10-29T15:33:53.645Z,97960.91
2022-10-29T15:36:20.794Z,97961.16
2022-10-29T15:38:52.095Z,97964.28
2022-10-29T15:41:37.937Z,97967.16
2022-10-29T15:44:42.085Z,97960.38
2022-10-29T15:47:48.560Z,97961.66
2022-10-29T15:50:18.533Z,97954.59
2022-10-29T15:52:55.896Z,97949.59
2022-10-29T15:55:27.803Z,97947.59
2022-10-29T15:57:59.921Z,97939.69
2022-10-29T16:00:26.863Z,97939.53
2022-10-29T16:02:55.566Z,97938.16
2022-10-29T16:05:22.371Z,97938.44
2022-10-29T16:07:49.014Z,97937.03
2022-10-29T16:10:21.713Z,97942.28
2022-10-29T16:12:49.918Z,97945.75
2022-10-29T16:15:19.175Z,97936.69
2022-10-29T16:17:46.893Z,97948.25
2022-10-29T16:20:18.982Z,97951.56
2022-10-29T16:22:47.511Z,97951.34
2022-10-29T16:25:25.224Z,97948.09
2022-10-29T16:27:52.235Z,97937.69
2022-10-29T16:30:19.875Z,97946.84
2022-10-29T16:32:49.794Z,97942.88
2022-10-29T16:35:22.103Z,97943.59
2022-10-29T16:37:52.982Z,97934.91
2022-10-29T16:40:21.504Z,97933.38
2022-10-29T16:42:48.622Z,97934.03
2022-10-29T16:45:21.605Z,97928.34
2022-10-29T16:47:48.176Z,97928.22
2022-10-29T16:50:25.396Z,97928.84
2022-10-29T16:52:59.789Z,97932.16
2022-10-29T16:55:27.380Z,97928.03
2022-10-29T16:57:57.100Z,97924.69
2022-10-29T17:00:26.006Z,97934.28
2022-10-29T17:02:52.679Z,97923.06
2022-10-29T17:05:19.372Z,97925.56
2022-10-29T17:07:45.898Z,97926.06
2022-10-29T17:10:12.439Z,97922.28
2022-10-29T17:12:39.210Z,97922.63
2022-10-29T17:15:06.831Z,97927.25
2022-10-29T17:17:33.568Z,97925.13
2022-10-29T17:20:00.242Z,97925.97
2022-10-29T17:22:26.812Z,97925.97
2022-10-29T17:24:53.358Z,97925.63
2022-10-29T17:27:22.080Z,97929.91
2022-10-29T17:29:48.671Z,97925.72
2022-10-29T17:32:17.658Z,97924.19
2022-10-29T17:34:44.235Z,97936.13
2022-10-29T17:37:11.948Z,97935.25
2022-10-29T17:39:38.588Z,97934.09
2022-10-29T17:42:05.549Z,97940.97
2022-10-29T17:44:33.950Z,97938.97
2022-10-29T17:47:00.595Z,97942.00
2022-10-29T17:49:29.423Z,97944.25
2022-10-29T17:51:55.960Z,97953.53
2022-10-29T17:54:22.628Z,97955.22
2022-10-29T17:56:52.216Z,97959.19
2022-10-29T17:59:18.788Z,97957.53
2022-10-29T18:01:45.570Z,97954.31
2022-10-29T18:04:12.506Z,97955.53
2022-10-29T18:06:39.244Z,97955.19
2022-10-29T18:09:06.052Z,97956.69
2022-10-29T18:11:32.698Z,97960.22
2022-10-29T18:13:59.256Z,97954.28
2022-10-29T18:16:27.851Z,97954.81
2022-10-29T18:19:02.853Z,97950.97
2022-10-29T18:21:32.614Z,97947.47
2022-10-29T18:23:59.142Z,97952.13
2022-10-29T18:26:31.443Z,97946.47
2022-10-29T18:28:59.865Z,97948.53
2022-10-29T18:31:29.914Z,97951.59
2022-10-29T18:33:58.058Z,97949.88
2022-10-29T18:36:24.716Z,97955.34
2022-10-29T18:38:55.311Z,97953.22
2022-10-29T18:41:23.267Z,97941.47
2022-10-29T18:43:50.506Z,97951.44
2022-10-29T18:46:18.144Z,97948.00
2022-10-29T18:48:46.884Z,97947.31
2022-10-29T18:51:24.163Z,97939.63
2022-10-29T18:53:51.631Z,97931.66
2022-10-29T18:56:19.850Z,97939.97
2022-10-29T18:58:47.102Z,97933.34
2022-10-29T19:01:22.783Z,97948.22
2022-10-29T19:03:54.639Z,97936.88
2022-10-29T19:06:23.235Z,97933.66
2022-10-29T19:08:50.177Z,97941.63
2022-10-29T19:11:19.606Z,97939.03
2022-10-29T19:13:54.375Z,97938.44
2022-10-29T19:16:21.858Z,97929.34
2022-10-29T19:18:53.576Z,97930.72
2022-10-29T19:21:20.214Z,97933.44
2022-10-29T19:23:46.900Z,97935.34
2022-10-29T19:26:16.207Z,97932.41
2022-10-29T19:28:43.972Z,97930.72
2022-10-29T19:31:18.521Z,97935.88
2022-10-29T19:33:49.533Z,97928.88
2022-10-29T19:36:16.926Z,97925.09
2022-10-29T19:38:44.208Z,97919.88
2022-10-29T19:41:12.349Z,97923.25
2022-10-29T19:43:42.117Z,97927.09
2022-10-29T19:46:12.295Z,97927.22
2022-10-29T19:48:39.957Z,97933.16
2022-10-29T19:51:10.244Z,97931.09
2022-10-29T19:53:39.186Z,97928.25
2022-10-29T19:56:10.385Z,97929.53
2022-10-29T19:58:37.027Z,97934.53
2022-10-29T20:01:11.369Z,97939.16
2022-10-29T20:03:38.034Z,97933.94
2022-10-29T20:06:06.499Z,97929.03
2022-10-29T20:08:38.762Z,97939.16
2022-10-29T20:11:08.297Z,97942.50
2022-10-29T20:13:35.291Z,97928.69
2022-10-29T20:16:08.391Z,97930.34
2022-10-29T20:18:36.249Z,97937.47
2022-10-29T20:21:02.966Z,97935.78
2022-10-29T20:23:29.945Z,97931.81
2022-10-29T20:25:56.527Z,97929.94
2022-10-29T20:28:23.077Z,97930.34
2022-10-29T20:30:49.677Z,97937.47
2022-10-29T20:33:16.214Z,97928.47
2022-10-29T20:35:45.354Z,97927.13
2022-10-29T20:38:11.934Z,97934.66
2022-10-29T20:40:38.503Z,97932.38
2022-10-29T20:43:05.153Z,97933.50
2022-10-29T20:45:31.791Z,97934.31
2022-10-29T20:48:02.412Z,97938.88
2022-10-29T20:50:29.046Z,97939.53
2022-10-29T20:52:55.691Z,97935.56
2022-10-29T20:55:22.321Z,97934.94
2022-10-29T20:57:48.867Z,97939.13
2022-10-29T21:00:15.685Z,97939.47
2022-10-29T21:02:42.296Z,97931.09
2022-10-29T21:05:13.884Z,97935.22
2022-10-29T21:07:40.418Z,97940.97
2022-10-29T21:10:08.462Z,97935.31
2022-10-29T21:12:34.991Z,97939.59
2022-10-29T21:15:01.743Z,97938.25
2022-10-29T21:17:28.340Z,97933.50
2022-10-29T21:19:54.921Z,97931.16
2022-10-29T21:22:21.472Z,97930.38
2022-10-29T21:24:47.976Z,97927.53
2022-10-29T21:27:14.636Z,97929.75
2022-10-29T21:29:41.277Z,97931.84
2022-10-29T21:32:11.404Z,97922.19
2022-10-29T21:34:42.508Z,97919.50
2022-10-29T21:37:09.084Z,97929.81
2022-10-29T21:39:35.709Z,97924.81
2022-10-29T21:42:02.340Z,97924.06
2022-10-29T21:44:28.867Z,97929.28
2022-10-29T21:46:55.331Z,97923.53
2022-10-29T21:49:21.783Z,97919.41
2022-10-29T21:51:49.879Z,97923.03
2022-10-29T21:54:16.572Z,97927.50
2022-10-29T21:56:43.031Z,97922.53
2022-10-29T21:59:09.511Z,97923.78
2022-10-29T22:01:36.102Z,97920.56
2022-10-29T22:04:02.654Z,97923.00
2022-10-29T22:06:29.139Z,97921.84
2022-10-29T22:08:57.658Z,97925.28
2022-10-29T22:11:25.371Z,97926.22
2022-10-29T22:13:52.664Z,97917.53
2022-10-29T22:16:22.345Z,97919.41
2022-10-29T22:18:49.928Z,97917.03
2022-10-29T22:21:22.237Z,97918.81
2022-10-29T22:23:53.815Z,97916.09
2022-10-29T22:26:25.770Z,97913.22
2022-10-29T22:28:52.684Z,97919.59
2022-10-29T22:31:20.892Z,97926.38
2022-10-29T22:33:48.120Z,97925.81
2022-10-29T22:36:14.497Z,97917.81
2022-10-29T22:38:41.412Z,97919.22
2022-10-29T22:41:13.794Z,97920.13
2022-10-29T22:43:40.719Z,97921.63
2022-10-29T22:46:08.915Z,97932.78
2022-10-29T22:48:35.898Z,97917.53
2022-10-29T22:51:22.556Z,97923.03
2022-10-29T22:53:50.437Z,97922.75
2022-10-29T22:56:28.716Z,97920.13
2022-10-29T22:58:55.625Z,97917.69
2022-10-29T23:01:27.679Z,97912.97
2022-10-29T23:03:57.458Z,97914.25
2022-10-29T23:06:25.087Z,97917.00
2022-10-29T23:08:56.739Z,97909.81
2022-10-29T23:11:25.868Z,97911.03
2022-10-29T23:13:57.627Z,97911.47
2022-10-29T23:16:26.500Z,97911.28
2022-10-29T23:18:55.292Z,97908.97
2022-10-29T23:21:21.991Z,97902.25
2022-10-29T23:23:51.377Z,97910.91
2022-10-29T23:26:21.126Z,97909.91
2022-10-29T23:28:49.008Z,97908.22
2022-10-29T23:31:17.899Z,97895.50
2022-10-29T23:33:46.097Z,97900.81
2022-10-29T23:36:16.028Z,97902.22
2022-10-29T23:38:45.229Z,97904.69
2022-10-29T23:41:12.703Z,97902.47
2022-10-29T23:43:39.233Z,97901.72
2022-10-29T23:46:08.281Z,97904.91
2022-10-29T23:48:34.689Z,97899.31
2022-10-29T23:51:01.552Z,97907.75
2022-10-29T23:53:30.796Z,97895.59
2022-10-29T23:56:00.491Z,97893.63
2022-10-29T23:58:26.958Z,97893.44
